sensor_id;sensor_type;location;lat;lon;timestamp;temperature;humidity
546;DHT22;259;53.304;9.816;2023-10-31T00:02:16;16.50;99.90
546;DHT22;259;53.304;9.816;2023-10-31T00:04:42;16.50;99.90
546;DHT22;259;53.304;9.816;2023-10-31T00:07:07;16.50;99.90
546;DHT22;259;53.304;9.816;2023-10-31T00:09:33;16.50;99.90
546;DHT22;259;53.304;9.816;2023-10-31T00:11:59;16.50;99.90
546;DHT22;259;53.304;9.816;2023-10-31T00:14:25;16.50;99.90
546;DHT22;259;53.304;9.816;2023-10-31T00:16:51;16.50;99.90
546;DHT22;259;53.304;9.816;2023-10-31T00:19:16;16.50;99.90
546;DHT22;259;53.304;9.816;2023-10-31T00:21:42;16.40;99.90
546;DHT22;259;53.304;9.816;2023-10-31T00:24:08;16.40;99.90
546;DHT22;259;53.304;9.816;2023-10-31T00:26:33;16.40;99.90
546;DHT22;259;53.304;9.816;2023-10-31T00:28:59;16.40;99.90
546;DHT22;259;53.304;9.816;2023-10-31T00:31:25;16.40;99.90
546;DHT22;259;53.304;9.816;2023-10-31T00:33:50;16.50;99.90
546;DHT22;259;53.304;9.816;2023-10-31T00:36:16;16.50;99.90
546;DHT22;259;53.304;9.816;2023-10-31T00:38:42;16.40;99.90
546;DHT22;259;53.304;9.816;2023-10-31T00:41:08;16.40;99.90
546;DHT22;259;53.304;9.816;2023-10-31T00:43:33;16.40;99.90
546;DHT22;259;53.304;9.816;2023-10-31T00:45:59;16.40;99.90
546;DHT22;259;53.304;9.816;2023-10-31T00:48:25;16.40;99.90
546;DHT22;259;53.304;9.816;2023-10-31T00:50:50;16.40;99.90
546;DHT22;259;53.304;9.816;2023-10-31T00:53:16;16.40;99.90
546;DHT22;259;53.304;9.816;2023-10-31T00:55:42;16.40;99.90
546;DHT22;259;53.304;9.816;2023-10-31T00:58:09;16.40;99.90
546;DHT22;259;53.304;9.816;2023-10-31T01:00:35;16.40;99.90
546;DHT22;259;53.304;9.816;2023-10-31T01:03:02;16.40;99.90
546;DHT22;259;53.304;9.816;2023-10-31T01:05:28;16.30;99.90
546;DHT22;259;53.304;9.816;2023-10-31T01:07:54;16.30;99.90
546;DHT22;259;53.304;9.816;2023-10-31T01:10:21;16.30;99.90
546;DHT22;259;53.304;9.816;2023-10-31T01:12:46;16.30;99.90
546;DHT22;259;53.304;9.816;2023-10-31T01:15:12;16.30;99.90
546;DHT22;259;53.304;9.816;2023-10-31T01:17:38;16.30;99.90
546;DHT22;259;53.304;9.816;2023-10-31T01:20:04;16.30;99.90
546;DHT22;259;53.304;9.816;2023-10-31T01:22:31;16.30;99.90
546;DHT22;259;53.304;9.816;2023-10-31T01:24:57;16.30;99.90
546;DHT22;259;53.304;9.816;2023-10-31T01:27:22;16.20;99.90
546;DHT22;259;53.304;9.816;2023-10-31T01:29:48;16.20;99.90
546;DHT22;259;53.304;9.816;2023-10-31T01:32:14;16.20;99.90
546;DHT22;259;53.304;9.816;2023-10-31T01:34:40;16.20;99.90
546;DHT22;259;53.304;9.816;2023-10-31T01:37:06;16.20;99.90
546;DHT22;259;53.304;9.816;2023-10-31T01:39:31;16.20;99.90
546;DHT22;259;53.304;9.816;2023-10-31T01:41:57;16.20;99.90
546;DHT22;259;53.304;9.816;2023-10-31T01:44:23;16.20;99.90
546;DHT22;259;53.304;9.816;2023-10-31T01:46:48;16.20;99.90
546;DHT22;259;53.304;9.816;2023-10-31T01:49:14;16.20;99.90
546;DHT22;259;53.304;9.816;2023-10-31T01:51:40;16.20;99.90
546;DHT22;259;53.304;9.816;2023-10-31T01:54:08;16.20;99.90
546;DHT22;259;53.304;9.816;2023-10-31T01:56:34;16.20;99.90
546;DHT22;259;53.304;9.816;2023-10-31T01:59:00;16.20;99.90
546;DHT22;259;53.304;9.816;2023-10-31T02:01:26;16.10;99.90
546;DHT22;259;53.304;9.816;2023-10-31T02:03:53;16.10;99.90
546;DHT22;259;53.304;9.816;2023-10-31T02:06:19;16.10;99.90
546;DHT22;259;53.304;9.816;2023-10-31T02:08:47;16.10;99.90
546;DHT22;259;53.304;9.816;2023-10-31T02:11:13;16.10;99.90
546;DHT22;259;53.304;9.816;2023-10-31T02:13:39;16.10;99.90
546;DHT22;259;53.304;9.816;2023-10-31T02:16:05;16.10;99.90
546;DHT22;259;53.304;9.816;2023-10-31T02:18:31;16.10;99.90
546;DHT22;259;53.304;9.816;2023-10-31T02:20:58;16.10;99.90
546;DHT22;259;53.304;9.816;2023-10-31T02:23:24;16.10;99.90
546;DHT22;259;53.304;9.816;2023-10-31T02:25:49;16.10;99.90
546;DHT22;259;53.304;9.816;2023-10-31T02:28:15;16.10;99.90
546;DHT22;259;53.304;9.816;2023-10-31T02:30:41;16.10;99.90
546;DHT22;259;53.304;9.816;2023-10-31T02:33:07;16.10;99.90
546;DHT22;259;53.304;9.816;2023-10-31T02:35:32;16.10;99.90
546;DHT22;259;53.304;9.816;2023-10-31T02:37:58;16.10;99.90
546;DHT22;259;53.304;9.816;2023-10-31T02:40:24;16.10;99.90
546;DHT22;259;53.304;9.816;2023-10-31T02:42:49;16.10;99.90
546;DHT22;259;53.304;9.816;2023-10-31T02:45:15;16.10;99.90
546;DHT22;259;53.304;9.816;2023-10-31T02:47:41;16.10;99.90
546;DHT22;259;53.304;9.816;2023-10-31T02:50:07;16.10;99.90
546;DHT22;259;53.304;9.816;2023-10-31T02:52:33;16.10;99.90
546;DHT22;259;53.304;9.816;2023-10-31T02:54:59;16.10;99.90
546;DHT22;259;53.304;9.816;2023-10-31T02:57:24;16.00;99.90
546;DHT22;259;53.304;9.816;2023-10-31T02:59:50;16.10;99.90
546;DHT22;259;53.304;9.816;2023-10-31T03:02:16;16.00;99.90
546;DHT22;259;53.304;9.816;2023-10-31T03:04:41;16.00;99.90
546;DHT22;259;53.304;9.816;2023-10-31T03:07:07;16.00;99.90
546;DHT22;259;53.304;9.816;2023-10-31T03:09:33;16.00;99.90
546;DHT22;259;53.304;9.816;2023-10-31T03:11:59;16.00;99.90
546;DHT22;259;53.304;9.816;2023-10-31T03:14:24;16.00;99.90
546;DHT22;259;53.304;9.816;2023-10-31T03:16:50;16.00;99.90
546;DHT22;259;53.304;9.816;2023-10-31T03:19:16;16.00;99.90
546;DHT22;259;53.304;9.816;2023-10-31T03:21:42;16.00;99.90
546;DHT22;259;53.304;9.816;2023-10-31T03:24:07;15.90;99.90
546;DHT22;259;53.304;9.816;2023-10-31T03:26:33;15.90;99.90
546;DHT22;259;53.304;9.816;2023-10-31T03:28:59;15.90;99.90
546;DHT22;259;53.304;9.816;2023-10-31T03:31:24;15.90;99.90
546;DHT22;259;53.304;9.816;2023-10-31T03:33:51;15.90;99.90
546;DHT22;259;53.304;9.816;2023-10-31T03:36:17;15.90;99.90
546;DHT22;259;53.304;9.816;2023-10-31T03:38:43;15.90;99.90
546;DHT22;259;53.304;9.816;2023-10-31T03:41:08;15.90;99.90
546;DHT22;259;53.304;9.816;2023-10-31T03:43:34;15.90;99.90
546;DHT22;259;53.304;9.816;2023-10-31T03:46:00;15.90;99.90
546;DHT22;259;53.304;9.816;2023-10-31T03:48:26;15.90;99.90
546;DHT22;259;53.304;9.816;2023-10-31T03:50:52;15.90;99.90
546;DHT22;259;53.304;9.816;2023-10-31T03:53:17;15.90;99.90
546;DHT22;259;53.304;9.816;2023-10-31T03:55:43;15.90;99.90
546;DHT22;259;53.304;9.816;2023-10-31T03:58:09;15.90;99.90
546;DHT22;259;53.304;9.816;2023-10-31T04:00:35;15.80;99.90
546;DHT22;259;53.304;9.816;2023-10-31T04:03:01;15.80;99.90
546;DHT22;259;53.304;9.816;2023-10-31T04:05:26;15.80;99.90
546;DHT22;259;53.304;9.816;2023-10-31T04:07:52;15.80;99.90
546;DHT22;259;53.304;9.816;2023-10-31T04:10:18;15.80;99.90
546;DHT22;259;53.304;9.816;2023-10-31T04:12:44;15.80;99.90
546;DHT22;259;53.304;9.816;2023-10-31T04:15:10;15.80;99.90
546;DHT22;259;53.304;9.816;2023-10-31T04:17:36;15.80;99.90
546;DHT22;259;53.304;9.816;2023-10-31T04:20:02;15.80;99.90
546;DHT22;259;53.304;9.816;2023-10-31T04:22:28;15.80;99.90
546;DHT22;259;53.304;9.816;2023-10-31T04:24:55;15.80;99.90
546;DHT22;259;53.304;9.816;2023-10-31T04:27:20;15.80;99.90
546;DHT22;259;53.304;9.816;2023-10-31T04:29:46;15.80;99.90
546;DHT22;259;53.304;9.816;2023-10-31T04:32:12;15.80;99.90
546;DHT22;259;53.304;9.816;2023-10-31T04:34:38;15.80;99.90
546;DHT22;259;53.304;9.816;2023-10-31T04:37:03;15.80;99.90
546;DHT22;259;53.304;9.816;2023-10-31T04:39:29;15.80;99.90
546;DHT22;259;53.304;9.816;2023-10-31T04:41:55;15.80;99.90
546;DHT22;259;53.304;9.816;2023-10-31T04:44:21;15.80;99.90
546;DHT22;259;53.304;9.816;2023-10-31T04:46:46;15.80;99.90
546;DHT22;259;53.304;9.816;2023-10-31T04:49:12;15.80;99.90
546;DHT22;259;53.304;9.816;2023-10-31T04:51:38;15.80;99.90
546;DHT22;259;53.304;9.816;2023-10-31T04:54:04;15.80;99.90
546;DHT22;259;53.304;9.816;2023-10-31T04:56:31;15.80;99.90
546;DHT22;259;53.304;9.816;2023-10-31T04:58:57;15.80;99.90
546;DHT22;259;53.304;9.816;2023-10-31T05:01:22;15.80;99.90
546;DHT22;259;53.304;9.816;2023-10-31T05:03:49;15.80;99.90
546;DHT22;259;53.304;9.816;2023-10-31T05:06:19;15.70;99.90
546;DHT22;259;53.304;9.816;2023-10-31T05:08:46;15.70;99.90
546;DHT22;259;53.304;9.816;2023-10-31T05:11:12;15.70;99.90
546;DHT22;259;53.304;9.816;2023-10-31T05:13:40;15.70;99.90
546;DHT22;259;53.304;9.816;2023-10-31T05:16:06;15.70;99.90
546;DHT22;259;53.304;9.816;2023-10-31T05:18:32;15.70;99.90
546;DHT22;259;53.304;9.816;2023-10-31T05:20:58;15.70;99.90
546;DHT22;259;53.304;9.816;2023-10-31T05:23:24;15.70;99.90
546;DHT22;259;53.304;9.816;2023-10-31T05:25:50;15.70;99.90
546;DHT22;259;53.304;9.816;2023-10-31T05:28:15;15.70;99.90
546;DHT22;259;53.304;9.816;2023-10-31T05:30:41;15.70;99.90
546;DHT22;259;53.304;9.816;2023-10-31T05:33:06;15.70;99.90
546;DHT22;259;53.304;9.816;2023-10-31T05:35:33;15.70;99.90
546;DHT22;259;53.304;9.816;2023-10-31T05:37:59;15.60;99.90
546;DHT22;259;53.304;9.816;2023-10-31T05:40:24;15.60;99.90
546;DHT22;259;53.304;9.816;2023-10-31T05:42:51;15.60;99.90
546;DHT22;259;53.304;9.816;2023-10-31T05:45:17;15.60;99.90
546;DHT22;259;53.304;9.816;2023-10-31T05:47:43;15.60;99.90
546;DHT22;259;53.304;9.816;2023-10-31T05:50:09;15.60;99.90
546;DHT22;259;53.304;9.816;2023-10-31T05:52:34;15.60;99.90
546;DHT22;259;53.304;9.816;2023-10-31T05:55:01;15.60;99.90
546;DHT22;259;53.304;9.816;2023-10-31T05:57:27;15.60;99.90
546;DHT22;259;53.304;9.816;2023-10-31T05:59:53;15.60;99.90
546;DHT22;259;53.304;9.816;2023-10-31T06:02:18;15.60;99.90
546;DHT22;259;53.304;9.816;2023-10-31T06:04:44;15.60;99.90
546;DHT22;259;53.304;9.816;2023-10-31T06:07:10;15.60;99.90
546;DHT22;259;53.304;9.816;2023-10-31T06:09:37;15.60;99.90
546;DHT22;259;53.304;9.816;2023-10-31T06:12:02;15.60;99.90
546;DHT22;259;53.304;9.816;2023-10-31T06:14:28;15.60;99.90
546;DHT22;259;53.304;9.816;2023-10-31T06:16:54;15.60;99.90
546;DHT22;259;53.304;9.816;2023-10-31T06:19:21;15.60;99.90
546;DHT22;259;53.304;9.816;2023-10-31T06:21:47;15.60;99.90
546;DHT22;259;53.304;9.816;2023-10-31T06:24:13;15.60;99.90
546;DHT22;259;53.304;9.816;2023-10-31T06:26:39;15.50;99.90
546;DHT22;259;53.304;9.816;2023-10-31T06:29:05;15.50;99.90
546;DHT22;259;53.304;9.816;2023-10-31T06:31:31;15.50;99.90
546;DHT22;259;53.304;9.816;2023-10-31T06:33:56;15.50;99.90
546;DHT22;259;53.304;9.816;2023-10-31T06:36:22;15.60;99.90
546;DHT22;259;53.304;9.816;2023-10-31T06:38:48;15.50;99.90
546;DHT22;259;53.304;9.816;2023-10-31T06:41:13;15.50;99.90
546;DHT22;259;53.304;9.816;2023-10-31T06:43:39;15.50;99.90
546;DHT22;259;53.304;9.816;2023-10-31T06:46:05;15.50;99.90
546;DHT22;259;53.304;9.816;2023-10-31T06:48:31;15.50;99.90
546;DHT22;259;53.304;9.816;2023-10-31T06:50:56;15.50;99.90
546;DHT22;259;53.304;9.816;2023-10-31T06:53:22;15.50;99.90
546;DHT22;259;53.304;9.816;2023-10-31T06:55:48;15.50;99.90
546;DHT22;259;53.304;9.816;2023-10-31T06:58:14;15.50;99.90
546;DHT22;259;53.304;9.816;2023-10-31T07:00:40;15.50;99.90
546;DHT22;259;53.304;9.816;2023-10-31T07:03:05;15.50;99.90
546;DHT22;259;53.304;9.816;2023-10-31T07:05:35;15.50;99.90
546;DHT22;259;53.304;9.816;2023-10-31T07:08:05;15.50;99.90
546;DHT22;259;53.304;9.816;2023-10-31T07:10:31;15.50;99.90
546;DHT22;259;53.304;9.816;2023-10-31T07:12:57;15.50;99.90
546;DHT22;259;53.304;9.816;2023-10-31T07:15:24;15.50;99.90
546;DHT22;259;53.304;9.816;2023-10-31T07:17:50;15.50;99.90
546;DHT22;259;53.304;9.816;2023-10-31T07:20:16;15.50;99.90
546;DHT22;259;53.304;9.816;2023-10-31T07:22:42;15.50;99.90
546;DHT22;259;53.304;9.816;2023-10-31T07:25:08;15.50;99.90
546;DHT22;259;53.304;9.816;2023-10-31T07:27:34;15.50;99.90
546;DHT22;259;53.304;9.816;2023-10-31T07:30:01;15.40;99.90
546;DHT22;259;53.304;9.816;2023-10-31T07:32:31;15.40;99.90
546;DHT22;259;53.304;9.816;2023-10-31T07:34:57;15.40;99.90
546;DHT22;259;53.304;9.816;2023-10-31T07:37:23;15.40;99.90
546;DHT22;259;53.304;9.816;2023-10-31T07:39:49;15.40;99.90
546;DHT22;259;53.304;9.816;2023-10-31T07:42:16;15.40;99.90
546;DHT22;259;53.304;9.816;2023-10-31T07:44:42;15.40;99.90
546;DHT22;259;53.304;9.816;2023-10-31T07:47:07;15.40;99.90
546;DHT22;259;53.304;9.816;2023-10-31T07:49:33;15.40;99.90
546;DHT22;259;53.304;9.816;2023-10-31T07:51:59;15.40;99.90
546;DHT22;259;53.304;9.816;2023-10-31T07:54:24;15.40;99.90
546;DHT22;259;53.304;9.816;2023-10-31T07:56:50;15.40;99.90
546;DHT22;259;53.304;9.816;2023-10-31T07:59:16;15.40;99.90
546;DHT22;259;53.304;9.816;2023-10-31T08:01:41;15.30;99.90
546;DHT22;259;53.304;9.816;2023-10-31T08:04:07;15.30;99.90
546;DHT22;259;53.304;9.816;2023-10-31T08:06:33;15.30;99.90
546;DHT22;259;53.304;9.816;2023-10-31T08:08:59;15.30;99.90
546;DHT22;259;53.304;9.816;2023-10-31T08:11:25;15.40;99.90
546;DHT22;259;53.304;9.816;2023-10-31T08:13:51;15.30;99.90
546;DHT22;259;53.304;9.816;2023-10-31T08:16:18;15.40;99.90
546;DHT22;259;53.304;9.816;2023-10-31T08:18:45;15.50;99.90
546;DHT22;259;53.304;9.816;2023-10-31T08:21:11;15.90;99.90
546;DHT22;259;53.304;9.816;2023-10-31T08:23:37;16.30;99.90
546;DHT22;259;53.304;9.816;2023-10-31T08:26:03;16.40;99.90
546;DHT22;259;53.304;9.816;2023-10-31T08:28:30;16.40;99.90
546;DHT22;259;53.304;9.816;2023-10-31T08:30:56;16.50;99.90
546;DHT22;259;53.304;9.816;2023-10-31T08:33:22;16.50;99.90
546;DHT22;259;53.304;9.816;2023-10-31T08:35:49;16.50;99.90
546;DHT22;259;53.304;9.816;2023-10-31T08:38:15;16.50;99.90
546;DHT22;259;53.304;9.816;2023-10-31T08:40:41;16.50;99.90
546;DHT22;259;53.304;9.816;2023-10-31T08:43:07;16.40;99.90
546;DHT22;259;53.304;9.816;2023-10-31T08:45:33;16.40;99.90
546;DHT22;259;53.304;9.816;2023-10-31T08:47:59;16.40;99.90
546;DHT22;259;53.304;9.816;2023-10-31T08:50:25;16.40;99.90
546;DHT22;259;53.304;9.816;2023-10-31T08:52:51;16.30;99.90
546;DHT22;259;53.304;9.816;2023-10-31T08:55:17;16.20;99.90
546;DHT22;259;53.304;9.816;2023-10-31T08:57:43;16.10;99.90
546;DHT22;259;53.304;9.816;2023-10-31T09:00:09;16.10;99.90
546;DHT22;259;53.304;9.816;2023-10-31T09:02:35;16.00;99.90
546;DHT22;259;53.304;9.816;2023-10-31T09:05:00;15.90;99.90
546;DHT22;259;53.304;9.816;2023-10-31T09:07:26;15.90;99.90
546;DHT22;259;53.304;9.816;2023-10-31T09:09:52;15.90;99.90
546;DHT22;259;53.304;9.816;2023-10-31T09:12:18;15.90;99.90
546;DHT22;259;53.304;9.816;2023-10-31T09:14:44;15.80;99.90
546;DHT22;259;53.304;9.816;2023-10-31T09:17:10;15.80;99.90
546;DHT22;259;53.304;9.816;2023-10-31T09:19:36;15.80;99.90
546;DHT22;259;53.304;9.816;2023-10-31T09:22:01;15.70;99.90
546;DHT22;259;53.304;9.816;2023-10-31T09:24:27;15.70;99.90
546;DHT22;259;53.304;9.816;2023-10-31T09:26:53;15.70;99.90
546;DHT22;259;53.304;9.816;2023-10-31T09:29:18;15.70;99.90
546;DHT22;259;53.304;9.816;2023-10-31T09:31:44;15.70;99.90
546;DHT22;259;53.304;9.816;2023-10-31T09:34:10;15.70;99.90
546;DHT22;259;53.304;9.816;2023-10-31T09:36:36;15.70;99.90
546;DHT22;259;53.304;9.816;2023-10-31T09:39:01;15.70;99.90
546;DHT22;259;53.304;9.816;2023-10-31T09:41:28;15.80;99.90
546;DHT22;259;53.304;9.816;2023-10-31T09:43:54;15.90;99.90
546;DHT22;259;53.304;9.816;2023-10-31T09:46:21;15.90;99.90
546;DHT22;259;53.304;9.816;2023-10-31T09:48:49;15.90;99.90
546;DHT22;259;53.304;9.816;2023-10-31T09:51:15;15.90;99.90
546;DHT22;259;53.304;9.816;2023-10-31T09:53:43;15.90;99.90
546;DHT22;259;53.304;9.816;2023-10-31T09:56:10;16.80;99.90
546;DHT22;259;53.304;9.816;2023-10-31T09:58:36;16.50;99.90
546;DHT22;259;53.304;9.816;2023-10-31T10:01:02;16.40;99.90
546;DHT22;259;53.304;9.816;2023-10-31T10:03:29;16.40;99.90
546;DHT22;259;53.304;9.816;2023-10-31T10:05:55;16.30;99.90
546;DHT22;259;53.304;9.816;2023-10-31T10:08:21;16.30;99.90
546;DHT22;259;53.304;9.816;2023-10-31T10:10:49;16.20;99.90
546;DHT22;259;53.304;9.816;2023-10-31T10:13:18;16.20;99.90
546;DHT22;259;53.304;9.816;2023-10-31T10:15:51;16.10;99.90
546;DHT22;259;53.304;9.816;2023-10-31T10:18:31;16.10;99.90
546;DHT22;259;53.304;9.816;2023-10-31T10:20:59;16.00;99.90
546;DHT22;259;53.304;9.816;2023-10-31T10:23:27;16.00;99.90
546;DHT22;259;53.304;9.816;2023-10-31T10:25:54;16.00;99.90
546;DHT22;259;53.304;9.816;2023-10-31T10:28:21;16.00;99.90
546;DHT22;259;53.304;9.816;2023-10-31T10:30:47;16.10;99.90
546;DHT22;259;53.304;9.816;2023-10-31T11:07:17;15.90;99.90
546;DHT22;259;53.304;9.816;2023-10-31T11:09:44;15.80;99.90
546;DHT22;259;53.304;9.816;2023-10-31T11:12:12;15.80;99.90
546;DHT22;259;53.304;9.816;2023-10-31T11:14:39;15.80;99.90
546;DHT22;259;53.304;9.816;2023-10-31T11:17:31;15.80;99.90
546;DHT22;259;53.304;9.816;2023-10-31T11:19:58;15.80;99.90
546;DHT22;259;53.304;9.816;2023-10-31T11:22:24;15.90;99.90
546;DHT22;259;53.304;9.816;2023-10-31T11:24:50;15.80;99.90
546;DHT22;259;53.304;9.816;2023-10-31T11:27:17;15.80;99.90
546;DHT22;259;53.304;9.816;2023-10-31T11:29:44;15.80;99.90
546;DHT22;259;53.304;9.816;2023-10-31T11:32:10;15.80;99.90
546;DHT22;259;53.304;9.816;2023-10-31T11:34:38;15.70;99.90
546;DHT22;259;53.304;9.816;2023-10-31T11:37:23;15.70;99.90
546;DHT22;259;53.304;9.816;2023-10-31T11:42:40;15.70;99.90
546;DHT22;259;53.304;9.816;2023-10-31T11:45:08;15.70;99.90
546;DHT22;259;53.304;9.816;2023-10-31T11:47:47;15.70;99.90
546;DHT22;259;53.304;9.816;2023-10-31T11:50:16;15.70;99.90
546;DHT22;259;53.304;9.816;2023-10-31T11:52:43;15.80;99.90
546;DHT22;259;53.304;9.816;2023-10-31T11:55:12;15.80;99.90
546;DHT22;259;53.304;9.816;2023-10-31T11:57:39;15.90;99.90
546;DHT22;259;53.304;9.816;2023-10-31T12:00:05;15.90;99.90
546;DHT22;259;53.304;9.816;2023-10-31T12:02:33;15.80;99.90
546;DHT22;259;53.304;9.816;2023-10-31T12:05:09;15.80;99.90
546;DHT22;259;53.304;9.816;2023-10-31T12:07:45;15.90;99.90
546;DHT22;259;53.304;9.816;2023-10-31T12:10:11;16.30;99.90
546;DHT22;259;53.304;9.816;2023-10-31T12:12:37;16.50;99.90
546;DHT22;259;53.304;9.816;2023-10-31T12:15:10;16.50;99.90
546;DHT22;259;53.304;9.816;2023-10-31T12:17:36;16.50;99.90
546;DHT22;259;53.304;9.816;2023-10-31T12:20:08;16.50;99.90
546;DHT22;259;53.304;9.816;2023-10-31T12:22:35;16.40;99.90
546;DHT22;259;53.304;9.816;2023-10-31T12:25:05;16.30;99.90
546;DHT22;259;53.304;9.816;2023-10-31T12:27:49;16.30;99.90
546;DHT22;259;53.304;9.816;2023-10-31T12:30:20;16.10;99.90
546;DHT22;259;53.304;9.816;2023-10-31T12:32:54;16.10;99.90
546;DHT22;259;53.304;9.816;2023-10-31T12:35:22;16.10;99.90
546;DHT22;259;53.304;9.816;2023-10-31T12:37:49;16.00;99.90
546;DHT22;259;53.304;9.816;2023-10-31T12:40:20;16.00;99.90
546;DHT22;259;53.304;9.816;2023-10-31T12:42:47;16.00;99.90
546;DHT22;259;53.304;9.816;2023-10-31T12:45:14;15.90;99.90
546;DHT22;259;53.304;9.816;2023-10-31T12:47:41;15.80;99.90
546;DHT22;259;53.304;9.816;2023-10-31T12:50:08;15.80;99.90
546;DHT22;259;53.304;9.816;2023-10-31T12:52:54;15.70;99.90
546;DHT22;259;53.304;9.816;2023-10-31T12:55:27;15.70;99.90
546;DHT22;259;53.304;9.816;2023-10-31T12:57:56;15.60;99.90
546;DHT22;259;53.304;9.816;2023-10-31T13:00:33;15.60;99.90
546;DHT22;259;53.304;9.816;2023-10-31T13:03:07;15.60;99.90
546;DHT22;259;53.304;9.816;2023-10-31T13:05:34;15.50;99.90
546;DHT22;259;53.304;9.816;2023-10-31T13:08:01;15.50;99.90
546;DHT22;259;53.304;9.816;2023-10-31T13:10:31;15.50;99.90
546;DHT22;259;53.304;9.816;2023-10-31T13:12:58;15.50;99.90
546;DHT22;259;53.304;9.816;2023-10-31T13:15:24;15.50;99.90
546;DHT22;259;53.304;9.816;2023-10-31T13:17:50;15.70;99.90
546;DHT22;259;53.304;9.816;2023-10-31T13:20:19;15.40;99.90
546;DHT22;259;53.304;9.816;2023-10-31T13:22:46;15.40;99.90
546;DHT22;259;53.304;9.816;2023-10-31T13:25:14;15.30;99.90
546;DHT22;259;53.304;9.816;2023-10-31T13:27:42;15.40;99.90
546;DHT22;259;53.304;9.816;2023-10-31T13:30:12;15.30;99.90
546;DHT22;259;53.304;9.816;2023-10-31T13:32:39;15.40;99.90
546;DHT22;259;53.304;9.816;2023-10-31T13:35:08;15.30;99.90
546;DHT22;259;53.304;9.816;2023-10-31T13:37:39;15.30;99.90
546;DHT22;259;53.304;9.816;2023-10-31T13:40:05;15.30;99.90
546;DHT22;259;53.304;9.816;2023-10-31T13:42:34;15.30;99.90
546;DHT22;259;53.304;9.816;2023-10-31T13:45:00;15.30;99.90
546;DHT22;259;53.304;9.816;2023-10-31T13:47:25;15.30;99.90
546;DHT22;259;53.304;9.816;2023-10-31T13:49:51;15.20;99.90
546;DHT22;259;53.304;9.816;2023-10-31T13:52:17;15.20;99.90
546;DHT22;259;53.304;9.816;2023-10-31T13:54:43;15.20;99.90
546;DHT22;259;53.304;9.816;2023-10-31T13:57:08;15.20;99.90
546;DHT22;259;53.304;9.816;2023-10-31T13:59:34;15.20;99.90
546;DHT22;259;53.304;9.816;2023-10-31T14:02:00;15.20;99.90
546;DHT22;259;53.304;9.816;2023-10-31T14:04:26;15.20;99.90
546;DHT22;259;53.304;9.816;2023-10-31T14:06:51;15.20;99.90
546;DHT22;259;53.304;9.816;2023-10-31T14:09:17;15.20;99.90
546;DHT22;259;53.304;9.816;2023-10-31T14:11:43;15.20;99.90
546;DHT22;259;53.304;9.816;2023-10-31T14:14:09;15.20;99.90
546;DHT22;259;53.304;9.816;2023-10-31T14:16:42;15.20;99.90
546;DHT22;259;53.304;9.816;2023-10-31T14:19:11;15.20;99.90
546;DHT22;259;53.304;9.816;2023-10-31T14:21:38;15.20;99.90
546;DHT22;259;53.304;9.816;2023-10-31T14:24:04;15.20;99.90
546;DHT22;259;53.304;9.816;2023-10-31T14:26:31;15.10;99.90
546;DHT22;259;53.304;9.816;2023-10-31T14:28:59;15.10;99.90
546;DHT22;259;53.304;9.816;2023-10-31T14:31:25;15.10;99.90
546;DHT22;259;53.304;9.816;2023-10-31T14:33:51;15.10;99.90
546;DHT22;259;53.304;9.816;2023-10-31T14:36:17;15.10;99.90
546;DHT22;259;53.304;9.816;2023-10-31T14:38:43;15.10;99.90
546;DHT22;259;53.304;9.816;2023-10-31T14:41:08;15.10;99.90
546;DHT22;259;53.304;9.816;2023-10-31T14:43:35;15.10;99.90
546;DHT22;259;53.304;9.816;2023-10-31T14:46:01;15.20;99.90
546;DHT22;259;53.304;9.816;2023-10-31T14:48:27;15.20;99.90
546;DHT22;259;53.304;9.816;2023-10-31T14:50:53;15.30;99.90
546;DHT22;259;53.304;9.816;2023-10-31T14:53:19;15.30;99.90
546;DHT22;259;53.304;9.816;2023-10-31T14:55:45;15.30;99.90
546;DHT22;259;53.304;9.816;2023-10-31T14:58:11;15.30;99.90
546;DHT22;259;53.304;9.816;2023-10-31T15:00:37;15.30;99.90
546;DHT22;259;53.304;9.816;2023-10-31T15:03:04;15.30;99.90
546;DHT22;259;53.304;9.816;2023-10-31T15:05:30;15.30;99.90
546;DHT22;259;53.304;9.816;2023-10-31T15:07:56;15.30;99.90
546;DHT22;259;53.304;9.816;2023-10-31T15:10:25;15.30;99.90
546;DHT22;259;53.304;9.816;2023-10-31T15:12:54;15.30;99.90
546;DHT22;259;53.304;9.816;2023-10-31T15:15:20;15.30;99.90
546;DHT22;259;53.304;9.816;2023-10-31T15:17:46;15.30;99.90
546;DHT22;259;53.304;9.816;2023-10-31T15:20:17;15.30;99.90
546;DHT22;259;53.304;9.816;2023-10-31T15:22:43;15.30;99.90
546;DHT22;259;53.304;9.816;2023-10-31T15:25:09;15.30;99.90
546;DHT22;259;53.304;9.816;2023-10-31T15:27:35;15.30;99.90
546;DHT22;259;53.304;9.816;2023-10-31T15:30:02;15.20;99.90
546;DHT22;259;53.304;9.816;2023-10-31T15:32:30;15.30;99.90
546;DHT22;259;53.304;9.816;2023-10-31T15:34:55;15.30;99.90
546;DHT22;259;53.304;9.816;2023-10-31T15:37:21;15.20;99.90
546;DHT22;259;53.304;9.816;2023-10-31T15:39:47;15.20;99.90
546;DHT22;259;53.304;9.816;2023-10-31T15:42:14;15.10;99.90
546;DHT22;259;53.304;9.816;2023-10-31T15:44:40;15.10;99.90
546;DHT22;259;53.304;9.816;2023-10-31T15:47:06;15.10;99.90
546;DHT22;259;53.304;9.816;2023-10-31T15:49:32;15.10;99.90
546;DHT22;259;53.304;9.816;2023-10-31T15:51:59;15.00;99.90
546;DHT22;259;53.304;9.816;2023-10-31T15:54:25;15.00;99.90
546;DHT22;259;53.304;9.816;2023-10-31T15:56:50;15.00;99.90
546;DHT22;259;53.304;9.816;2023-10-31T15:59:16;14.90;99.90
546;DHT22;259;53.304;9.816;2023-10-31T16:01:42;14.90;99.90
546;DHT22;259;53.304;9.816;2023-10-31T16:04:08;14.90;99.90
546;DHT22;259;53.304;9.816;2023-10-31T16:06:37;14.80;99.90
546;DHT22;259;53.304;9.816;2023-10-31T16:09:03;14.80;99.90
546;DHT22;259;53.304;9.816;2023-10-31T16:11:29;14.80;99.90
546;DHT22;259;53.304;9.816;2023-10-31T16:13:57;14.80;99.90
546;DHT22;259;53.304;9.816;2023-10-31T16:16:23;14.80;99.90
546;DHT22;259;53.304;9.816;2023-10-31T16:18:49;14.80;99.90
546;DHT22;259;53.304;9.816;2023-10-31T16:21:19;14.80;99.90
546;DHT22;259;53.304;9.816;2023-10-31T16:23:46;14.70;99.90
546;DHT22;259;53.304;9.816;2023-10-31T16:26:13;14.70;99.90
546;DHT22;259;53.304;9.816;2023-10-31T16:28:40;14.70;99.90
546;DHT22;259;53.304;9.816;2023-10-31T16:31:06;14.70;99.90
546;DHT22;259;53.304;9.816;2023-10-31T16:33:35;14.70;99.90
546;DHT22;259;53.304;9.816;2023-10-31T16:36:01;14.70;99.90
546;DHT22;259;53.304;9.816;2023-10-31T16:38:27;14.70;99.90
546;DHT22;259;53.304;9.816;2023-10-31T16:40:52;14.70;99.90
546;DHT22;259;53.304;9.816;2023-10-31T16:43:18;14.70;99.90
546;DHT22;259;53.304;9.816;2023-10-31T16:45:44;14.70;99.90
546;DHT22;259;53.304;9.816;2023-10-31T16:48:10;14.70;99.90
546;DHT22;259;53.304;9.816;2023-10-31T16:50:36;14.70;99.90
546;DHT22;259;53.304;9.816;2023-10-31T16:53:02;14.70;99.90
546;DHT22;259;53.304;9.816;2023-10-31T16:55:30;14.70;99.90
546;DHT22;259;53.304;9.816;2023-10-31T16:57:55;14.60;99.90
546;DHT22;259;53.304;9.816;2023-10-31T17:00:21;14.60;99.90
546;DHT22;259;53.304;9.816;2023-10-31T17:02:47;14.60;99.90
546;DHT22;259;53.304;9.816;2023-10-31T17:05:13;14.60;99.90
546;DHT22;259;53.304;9.816;2023-10-31T17:07:38;14.60;99.90